ダルエスサラーム の空港の天気 - METARとTAF

ジュリウス・ニエレレ国際空港(ダルエスサラーム) ( HTDA / DAR ) - タンザニア ダルエスサラーム
飛行場実況気象(Metar)
観測時間10/21 17:00 EAT (10/21 14:00 UTC)
風向・風速東南東 6m/s
視程10km以上
天気現象
全天の4割程度の雲 雲底高度 910m
気温30℃
湿度59%
気圧1011hPa
METARHTDA 211400Z 12012KT 9999 SCT030 30/21 Q1011 NOSIG
過去の天気等 Google飛行場航空写真 Wunderground天気予報

過去48時間のMETAR

飛行場予報(TAF)
発表時間: 10/21 14:00 EAT (10/21 11:00 UTC)
予報対象時間: 21日15時 EAT ~ 22日21時 EAT
風向・風速東 5m/s
視程10km以上
全天の4割程度の雲 雲底高度 850m
22日9時 EAT ~ 22日12時 EAT に徐々に
風向・風速北東 5m/s
全天の8割程度の雲 雲底高度 730m
HTDA 211100Z 2112/2218 10010KT 9999 SCT028
BECMG 2206/2209 04010KT BKN024